createdAt,value
2022-09-10T00:03:00.280Z,95.59
2022-09-10T00:08:13.747Z,95.59
2022-09-10T00:13:06.641Z,95.79
2022-09-10T00:18:06.552Z,95.59
2022-09-10T00:23:06.581Z,95.90
2022-09-10T00:28:06.550Z,95.90
2022-09-10T00:33:06.443Z,96.51
2022-09-10T00:38:06.303Z,96.00
2022-09-10T00:43:06.242Z,95.75
2022-09-10T00:48:06.167Z,95.55
2022-09-10T00:53:06.113Z,95.25
2022-09-10T00:58:06.042Z,95.75
2022-09-10T01:03:06.008Z,95.75
2022-09-10T01:08:05.978Z,95.55
2022-09-10T01:13:05.844Z,95.95
2022-09-10T01:18:05.752Z,95.45
2022-09-10T01:23:05.827Z,95.86
2022-09-10T01:28:05.627Z,95.55
2022-09-10T01:33:05.592Z,96.15
2022-09-10T01:38:05.515Z,96.06
2022-09-10T01:43:05.448Z,96.15
2022-09-10T01:48:05.379Z,96.36
2022-09-10T01:53:05.446Z,97.27
2022-09-10T01:58:05.251Z,96.56
2022-09-10T02:03:05.194Z,96.01
2022-09-10T02:08:05.256Z,95.81
2022-09-10T02:13:05.034Z,96.82
2022-09-10T02:18:05.017Z,96.31
2022-09-10T02:23:04.967Z,96.72
2022-09-10T02:28:04.847Z,95.71
2022-09-10T02:33:04.767Z,96.22
2022-09-10T02:38:04.731Z,96.11
2022-09-10T02:43:04.603Z,95.91
2022-09-10T02:48:04.585Z,96.51
2022-09-10T02:53:04.540Z,95.81
2022-09-10T02:58:04.414Z,96.31
2022-09-10T03:03:04.455Z,96.01
2022-09-10T03:08:04.408Z,96.01
2022-09-10T03:13:04.236Z,95.71
2022-09-10T03:18:04.196Z,95.50
2022-09-10T03:23:04.103Z,95.40
2022-09-10T03:28:04.004Z,94.70
2022-09-10T03:33:04.027Z,94.49
2022-09-10T03:38:03.899Z,94.29
2022-09-10T03:43:03.864Z,94.29
2022-09-10T03:48:03.775Z,94.39
2022-09-10T03:53:03.716Z,94.09
2022-09-10T03:58:03.674Z,94.39
2022-09-10T04:03:03.561Z,94.49
2022-09-10T04:08:03.579Z,93.99
2022-09-10T04:13:03.510Z,94.19
2022-09-10T04:18:17.444Z,94.19
2022-09-10T04:23:10.366Z,94.19
2022-09-10T04:28:10.315Z,94.09
2022-09-10T04:33:10.235Z,94.29
2022-09-10T04:38:10.173Z,94.19
2022-09-10T04:43:10.124Z,94.59
2022-09-10T04:48:10.037Z,94.29
2022-09-10T04:53:09.975Z,94.49
2022-09-10T04:58:09.923Z,94.79
2022-09-10T05:03:09.823Z,95.10
2022-09-10T05:08:09.803Z,93.68
2022-09-10T05:13:09.701Z,93.88
2022-09-10T05:18:09.666Z,94.59
2022-09-10T05:23:09.592Z,94.19
2022-09-10T05:28:09.511Z,93.38
2022-09-10T05:33:09.575Z,93.38
2022-09-10T05:38:09.395Z,93.27
2022-09-10T05:43:09.307Z,93.27
2022-09-10T05:48:09.307Z,93.38
2022-09-10T05:53:09.177Z,93.38
2022-09-10T05:58:09.107Z,92.97
2022-09-10T06:03:09.148Z,93.07
2022-09-10T06:08:09.302Z,92.77
2022-09-10T06:13:08.900Z,93.43
2022-09-10T06:18:08.849Z,92.93
2022-09-10T06:23:08.765Z,92.72
2022-09-10T06:28:08.711Z,92.79
2022-09-10T06:33:08.629Z,92.79
2022-09-10T06:38:08.575Z,92.38
2022-09-10T06:43:08.507Z,93.19
2022-09-10T06:53:09.428Z,93.13
2022-09-10T06:58:08.305Z,93.23
2022-09-10T07:03:08.239Z,93.74
2022-09-10T07:08:08.171Z,94.04
2022-09-10T07:13:08.105Z,93.90
2022-09-10T07:18:08.079Z,93.65
2022-09-10T07:23:11.083Z,93.44
2022-09-10T07:28:07.909Z,94.56
2022-09-10T07:33:07.851Z,96.33
2022-09-10T07:38:07.791Z,96.83
2022-09-10T07:43:07.790Z,96.33
2022-09-10T07:48:07.663Z,96.73
2022-09-10T07:53:07.654Z,97.94
2022-09-10T07:58:07.568Z,97.03
2022-09-10T08:03:07.536Z,97.94
2022-09-10T08:08:07.392Z,98.05
2022-09-10T08:13:07.320Z,97.64
2022-09-10T08:18:07.252Z,98.45
2022-09-10T08:23:07.254Z,98.25
2022-09-10T08:28:07.135Z,98.45
2022-09-10T08:33:07.048Z,98.00
2022-09-10T08:38:06.979Z,95.89
2022-09-10T08:43:06.898Z,93.98
2022-09-10T08:48:06.868Z,92.78
2022-09-10T08:53:06.792Z,90.56
2022-09-10T08:58:06.731Z,91.08
2022-09-10T09:03:07.029Z,87.37
2022-09-10T09:08:06.690Z,86.36
2022-09-10T09:13:06.597Z,85.38
2022-09-10T09:18:06.443Z,81.38
2022-09-10T09:23:06.462Z,79.75
2022-09-10T09:28:06.320Z,83.75
2022-09-10T09:33:06.280Z,85.11
2022-09-10T09:38:06.170Z,83.15
2022-09-10T09:43:06.174Z,78.72
2022-09-10T09:48:06.052Z,83.67
2022-09-10T09:53:06.036Z,82.48
2022-09-10T09:58:05.943Z,83.03
2022-09-10T10:03:05.851Z,84.41
2022-09-10T10:08:08.039Z,86.02
2022-09-10T10:13:05.741Z,85.78
2022-09-10T10:18:05.697Z,81.92
2022-09-10T10:23:05.635Z,83.03
2022-09-10T10:28:05.533Z,86.58
2022-09-10T10:33:05.508Z,85.76
2022-09-10T10:38:05.517Z,86.79
2022-09-10T10:43:05.368Z,85.53
2022-09-10T10:48:05.261Z,84.03
2022-09-10T10:53:05.610Z,82.52
2022-09-10T10:58:05.130Z,83.09
2022-09-10T11:03:05.137Z,79.78
2022-09-10T11:08:05.017Z,77.06
2022-09-10T11:13:04.934Z,78.55
2022-09-10T11:18:04.868Z,82.68
2022-09-10T11:23:08.753Z,83.49
2022-09-10T11:28:04.763Z,84.49
2022-09-10T11:33:04.751Z,79.47
2022-09-10T11:38:04.671Z,77.56
2022-09-10T11:43:04.568Z,84.74
2022-09-10T11:48:04.451Z,88.19
2022-09-10T11:53:04.401Z,86.79
2022-09-10T11:58:04.437Z,85.48
2022-09-10T12:03:04.284Z,85.08
2022-09-10T12:08:04.205Z,86.22
2022-09-10T12:13:04.150Z,83.20
2022-09-10T12:18:04.067Z,81.52
2022-09-10T12:23:04.009Z,79.50
2022-09-10T12:28:03.934Z,78.97
2022-09-10T12:33:03.873Z,80.19
2022-09-10T12:38:03.831Z,78.05
2022-09-10T12:43:03.743Z,79.49
2022-09-10T12:48:03.673Z,79.63
2022-09-10T12:53:03.688Z,78.90
2022-09-10T12:58:03.560Z,84.91
2022-09-10T13:03:03.604Z,90.44
2022-09-10T13:08:03.441Z,89.67
2022-09-10T13:13:03.370Z,91.08
2022-09-10T13:18:03.349Z,90.13
2022-09-10T13:23:03.197Z,91.50
2022-09-10T13:28:03.193Z,89.64
2022-09-10T13:33:03.088Z,91.21
2022-09-10T13:38:03.049Z,87.89
2022-09-10T13:43:02.943Z,87.69
2022-09-10T13:48:02.931Z,90.50
2022-09-10T13:53:02.839Z,88.49
2022-09-10T13:58:03.045Z,90.34
2022-09-10T14:03:02.730Z,90.69
2022-09-10T14:08:02.802Z,90.73
2022-09-10T14:13:02.547Z,93.26
2022-09-10T14:18:02.593Z,93.26
2022-09-10T14:23:02.421Z,93.10
2022-09-10T14:28:02.442Z,93.50
2022-09-10T14:33:02.316Z,95.46
2022-09-10T14:38:02.241Z,97.02
2022-09-10T14:43:02.171Z,98.43
2022-09-10T14:48:02.081Z,96.05
2022-09-10T14:53:02.009Z,96.41
2022-09-10T14:58:01.984Z,96.41
2022-09-10T15:03:02.625Z,97.88
2022-09-10T15:08:01.925Z,95.27
2022-09-10T15:13:01.766Z,94.16
2022-09-10T15:18:01.728Z,92.85
2022-09-10T15:23:01.615Z,92.75
2022-09-10T15:28:01.763Z,94.67
2022-09-10T15:33:01.501Z,95.97
2022-09-10T15:38:01.475Z,94.87
2022-09-10T15:43:01.383Z,94.67
2022-09-10T15:48:01.283Z,96.28
2022-09-10T15:53:01.302Z,97.08
2022-09-10T15:58:01.168Z,94.62
2022-09-10T16:03:01.179Z,92.91
2022-09-10T16:08:01.046Z,93.27
2022-09-10T16:13:00.965Z,93.07
2022-09-10T16:18:00.967Z,92.96
2022-09-10T16:23:00.822Z,92.20
2022-09-10T16:28:00.957Z,93.76
2022-09-10T16:33:00.674Z,96.08
2022-09-10T16:38:00.612Z,97.73
2022-09-10T16:43:00.579Z,98.54
2022-09-10T16:48:04.157Z,98.54
2022-09-10T16:53:00.427Z,98.94
2022-09-10T16:58:00.356Z,99.04
2022-09-10T17:03:00.320Z,99.59
2022-09-10T17:08:00.672Z,99.59
2022-09-10T17:13:00.278Z,99.99
2022-09-10T17:18:00.062Z,99.99
2022-09-10T17:23:00.147Z,99.79
2022-09-10T17:27:59.975Z,99.74
2022-09-10T17:32:59.922Z,98.33
2022-09-10T17:37:59.808Z,98.47
2022-09-10T17:43:00.063Z,99.88
2022-09-10T17:47:59.796Z,99.99
2022-09-10T17:52:59.684Z,99.99
2022-09-10T17:57:59.701Z,99.99
2022-09-10T18:02:59.563Z,99.99
2022-09-10T18:07:59.426Z,99.98
2022-09-10T18:13:00.436Z,99.99
2022-09-10T18:17:59.311Z,99.99
2022-09-10T18:22:59.271Z,99.99
2022-09-10T18:27:59.224Z,99.62
2022-09-10T18:32:59.160Z,99.99
2022-09-10T18:37:59.022Z,99.99
2022-09-10T18:42:58.984Z,99.99
2022-09-10T18:47:58.896Z,99.99
2022-09-10T18:52:59.033Z,99.99
2022-09-10T18:57:58.790Z,99.99
2022-09-10T19:02:58.698Z,99.27
2022-09-10T19:07:58.666Z,99.99
2022-09-10T19:12:59.465Z,99.99
2022-09-10T19:17:58.526Z,99.99
2022-09-10T19:22:58.418Z,99.99
2022-09-10T19:27:58.352Z,99.99
2022-09-10T19:32:58.313Z,99.99
2022-09-10T19:37:58.619Z,99.99
2022-09-10T19:42:58.154Z,99.99
2022-09-10T19:47:58.173Z,99.99
2022-09-10T19:52:58.028Z,99.99
2022-09-10T19:57:57.959Z,99.99
2022-09-10T20:02:58.218Z,99.99
2022-09-10T20:07:58.057Z,99.99
2022-09-10T20:12:57.793Z,99.99
2022-09-10T20:17:57.742Z,99.99
2022-09-10T20:22:57.613Z,99.99
2022-09-10T20:27:57.569Z,99.99
2022-09-10T20:32:57.537Z,99.99
2022-09-10T20:37:57.437Z,99.99
2022-09-10T20:42:57.362Z,99.99
2022-09-10T20:47:57.429Z,99.99
2022-09-10T20:52:57.240Z,99.99
2022-09-10T20:57:57.164Z,99.99
2022-09-10T21:02:57.108Z,99.99
2022-09-10T21:07:57.038Z,99.99
2022-09-10T21:12:57.008Z,99.99
2022-09-10T21:17:56.888Z,99.99
2022-09-10T21:22:56.991Z,99.99
2022-09-10T21:27:56.759Z,99.99
2022-09-10T21:32:56.706Z,99.99
2022-09-10T21:37:56.644Z,99.99
2022-09-10T21:42:56.571Z,99.99
2022-09-10T21:47:56.523Z,99.99
2022-09-10T21:52:56.469Z,99.99
2022-09-10T21:57:56.405Z,99.99
2022-09-10T22:02:56.306Z,99.99
2022-09-10T22:07:56.238Z,99.99
2022-09-10T22:12:57.111Z,99.99
2022-09-10T22:17:56.102Z,99.99
2022-09-10T22:22:56.046Z,99.99
2022-09-10T22:27:56.021Z,99.99
2022-09-10T22:32:55.934Z,99.99
2022-09-10T22:37:55.828Z,99.99
2022-09-10T22:42:55.788Z,99.99
2022-09-10T22:47:55.731Z,99.99
2022-09-10T22:52:55.643Z,99.99
2022-09-10T22:57:55.560Z,99.99
2022-09-10T23:02:55.522Z,99.99
2022-09-10T23:07:55.439Z,99.99
2022-09-10T23:12:55.373Z,99.99
2022-09-10T23:17:55.318Z,99.99
2022-09-10T23:22:55.239Z,99.99
2022-09-10T23:27:55.169Z,99.99
2022-09-10T23:32:55.119Z,99.99
2022-09-10T23:37:55.086Z,99.99
2022-09-10T23:42:54.981Z,99.99
2022-09-10T23:47:54.903Z,99.99
2022-09-10T23:52:54.847Z,99.99
2022-09-10T23:57:54.783Z,99.99
